sensor_id;sensor_type;location;lat;lon;timestamp;P1;durP1;ratioP1;P2;durP2;ratioP2
64052;SDS011;50299;49.524;8.536;2022-10-16T00:01:33;9.23;;;4.35;;
64052;SDS011;50299;49.524;8.536;2022-10-16T00:04:00;5.15;;;3.35;;
64052;SDS011;50299;49.524;8.536;2022-10-16T00:06:27;4.50;;;4.00;;
64052;SDS011;50299;49.524;8.536;2022-10-16T00:08:54;5.13;;;4.00;;
64052;SDS011;50299;49.524;8.536;2022-10-16T00:11:22;5.60;;;3.35;;
64052;SDS011;50299;49.524;8.536;2022-10-16T00:14:01;3.95;;;3.65;;
64052;SDS011;50299;49.524;8.536;2022-10-16T00:16:30;5.30;;;4.05;;
64052;SDS011;50299;49.524;8.536;2022-10-16T00:19:00;6.13;;;3.50;;
64052;SDS011;50299;49.524;8.536;2022-10-16T00:21:27;8.50;;;3.40;;
64052;SDS011;50299;49.524;8.536;2022-10-16T00:23:58;3.92;;;3.55;;
64052;SDS011;50299;49.524;8.536;2022-10-16T00:26:28;4.32;;;3.53;;
64052;SDS011;50299;49.524;8.536;2022-10-16T00:28:56;3.60;;;3.30;;
64052;SDS011;50299;49.524;8.536;2022-10-16T00:31:23;4.78;;;3.40;;
64052;SDS011;50299;49.524;8.536;2022-10-16T00:33:50;5.68;;;3.47;;
64052;SDS011;50299;49.524;8.536;2022-10-16T00:36:18;5.82;;;3.33;;
64052;SDS011;50299;49.524;8.536;2022-10-16T00:38:46;4.07;;;3.17;;
64052;SDS011;50299;49.524;8.536;2022-10-16T00:41:15;3.20;;;2.90;;
64052;SDS011;50299;49.524;8.536;2022-10-16T00:43:43;5.22;;;3.67;;
64052;SDS011;50299;49.524;8.536;2022-10-16T00:46:16;7.30;;;3.63;;
64052;SDS011;50299;49.524;8.536;2022-10-16T00:48:50;8.02;;;5.32;;
64052;SDS011;50299;49.524;8.536;2022-10-16T00:51:23;3.28;;;2.90;;
64052;SDS011;50299;49.524;8.536;2022-10-16T00:53:56;10.10;;;3.15;;
64052;SDS011;50299;49.524;8.536;2022-10-16T00:56:23;7.63;;;3.58;;
64052;SDS011;50299;49.524;8.536;2022-10-16T00:58:49;4.30;;;3.97;;
64052;SDS011;50299;49.524;8.536;2022-10-16T01:01:16;9.02;;;7.25;;
64052;SDS011;50299;49.524;8.536;2022-10-16T01:03:42;4.18;;;3.72;;
64052;SDS011;50299;49.524;8.536;2022-10-16T01:06:17;3.95;;;3.33;;
64052;SDS011;50299;49.524;8.536;2022-10-16T01:11:38;4.20;;;3.33;;
64052;SDS011;50299;49.524;8.536;2022-10-16T01:14:14;9.15;;;3.17;;
64052;SDS011;50299;49.524;8.536;2022-10-16T01:16:49;4.47;;;3.50;;
64052;SDS011;50299;49.524;8.536;2022-10-16T01:22:06;3.85;;;3.05;;
64052;SDS011;50299;49.524;8.536;2022-10-16T01:24:39;6.57;;;4.43;;
64052;SDS011;50299;49.524;8.536;2022-10-16T01:27:12;4.13;;;3.17;;
64052;SDS011;50299;49.524;8.536;2022-10-16T01:34:53;5.25;;;3.65;;
64052;SDS011;50299;49.524;8.536;2022-10-16T01:37:32;7.78;;;3.40;;
64052;SDS011;50299;49.524;8.536;2022-10-16T01:40:05;3.58;;;3.05;;
64052;SDS011;50299;49.524;8.536;2022-10-16T01:42:37;5.35;;;3.38;;
64052;SDS011;50299;49.524;8.536;2022-10-16T01:45:08;3.95;;;3.22;;
64052;SDS011;50299;49.524;8.536;2022-10-16T01:47:37;6.95;;;3.20;;
64052;SDS011;50299;49.524;8.536;2022-10-16T01:50:04;5.30;;;3.33;;
64052;SDS011;50299;49.524;8.536;2022-10-16T01:52:33;5.03;;;2.70;;
64052;SDS011;50299;49.524;8.536;2022-10-16T01:55:03;4.72;;;3.55;;
64052;SDS011;50299;49.524;8.536;2022-10-16T01:57:33;4.90;;;3.53;;
64052;SDS011;50299;49.524;8.536;2022-10-16T02:03:04;3.92;;;3.58;;
64052;SDS011;50299;49.524;8.536;2022-10-16T02:05:42;4.78;;;3.00;;
64052;SDS011;50299;49.524;8.536;2022-10-16T02:08:12;5.90;;;3.78;;
64052;SDS011;50299;49.524;8.536;2022-10-16T02:10:39;5.05;;;2.83;;
64052;SDS011;50299;49.524;8.536;2022-10-16T02:13:06;5.07;;;3.03;;
64052;SDS011;50299;49.524;8.536;2022-10-16T02:15:36;3.42;;;3.13;;
64052;SDS011;50299;49.524;8.536;2022-10-16T02:18:04;4.03;;;2.80;;
64052;SDS011;50299;49.524;8.536;2022-10-16T02:20:32;3.90;;;3.22;;
64052;SDS011;50299;49.524;8.536;2022-10-16T02:23:04;5.22;;;3.05;;
64052;SDS011;50299;49.524;8.536;2022-10-16T02:25:35;4.82;;;3.00;;
64052;SDS011;50299;49.524;8.536;2022-10-16T02:33:05;4.30;;;3.17;;
64052;SDS011;50299;49.524;8.536;2022-10-16T02:35:36;2.58;;;2.35;;
64052;SDS011;50299;49.524;8.536;2022-10-16T02:38:04;2.88;;;2.63;;
64052;SDS011;50299;49.524;8.536;2022-10-16T02:40:32;4.80;;;2.50;;
64052;SDS011;50299;49.524;8.536;2022-10-16T02:42:59;2.78;;;2.55;;
64052;SDS011;50299;49.524;8.536;2022-10-16T02:45:26;2.70;;;2.50;;
64052;SDS011;50299;49.524;8.536;2022-10-16T02:47:52;6.30;;;2.88;;
64052;SDS011;50299;49.524;8.536;2022-10-16T02:50:19;4.05;;;2.63;;
64052;SDS011;50299;49.524;8.536;2022-10-16T02:52:45;4.15;;;2.78;;
64052;SDS011;50299;49.524;8.536;2022-10-16T02:55:12;9.07;;;3.47;;
64052;SDS011;50299;49.524;8.536;2022-10-16T02:57:38;5.78;;;2.92;;
64052;SDS011;50299;49.524;8.536;2022-10-16T03:00:09;4.53;;;2.47;;
64052;SDS011;50299;49.524;8.536;2022-10-16T03:02:39;3.72;;;3.10;;
64052;SDS011;50299;49.524;8.536;2022-10-16T03:05:06;5.65;;;2.67;;
64052;SDS011;50299;49.524;8.536;2022-10-16T03:07:34;3.58;;;2.72;;
64052;SDS011;50299;49.524;8.536;2022-10-16T03:10:01;2.58;;;2.22;;
64052;SDS011;50299;49.524;8.536;2022-10-16T03:12:27;3.13;;;2.85;;
64052;SDS011;50299;49.524;8.536;2022-10-16T03:14:55;3.25;;;2.58;;
64052;SDS011;50299;49.524;8.536;2022-10-16T03:17:23;3.63;;;2.58;;
64052;SDS011;50299;49.524;8.536;2022-10-16T03:19:50;5.43;;;3.10;;
64052;SDS011;50299;49.524;8.536;2022-10-16T03:22:17;4.10;;;2.60;;
64052;SDS011;50299;49.524;8.536;2022-10-16T03:24:43;3.47;;;2.53;;
64052;SDS011;50299;49.524;8.536;2022-10-16T03:27:09;3.63;;;2.40;;
64052;SDS011;50299;49.524;8.536;2022-10-16T03:29:36;2.55;;;2.35;;
64052;SDS011;50299;49.524;8.536;2022-10-16T03:32:02;3.08;;;2.45;;
64052;SDS011;50299;49.524;8.536;2022-10-16T03:34:29;2.55;;;1.98;;
64052;SDS011;50299;49.524;8.536;2022-10-16T03:36:55;3.25;;;3.05;;
64052;SDS011;50299;49.524;8.536;2022-10-16T03:39:22;4.65;;;2.70;;
64052;SDS011;50299;49.524;8.536;2022-10-16T03:41:48;2.65;;;2.13;;
64052;SDS011;50299;49.524;8.536;2022-10-16T03:44:14;2.50;;;2.30;;
64052;SDS011;50299;49.524;8.536;2022-10-16T03:46:42;2.60;;;2.38;;
64052;SDS011;50299;49.524;8.536;2022-10-16T03:49:08;2.55;;;2.35;;
64052;SDS011;50299;49.524;8.536;2022-10-16T03:51:35;2.42;;;1.98;;
64052;SDS011;50299;49.524;8.536;2022-10-16T03:54:01;2.58;;;2.00;;
64052;SDS011;50299;49.524;8.536;2022-10-16T03:56:28;3.30;;;2.53;;
64052;SDS011;50299;49.524;8.536;2022-10-16T03:58:54;3.67;;;2.17;;
64052;SDS011;50299;49.524;8.536;2022-10-16T04:01:21;3.28;;;2.92;;
64052;SDS011;50299;49.524;8.536;2022-10-16T04:03:47;2.97;;;2.50;;
64052;SDS011;50299;49.524;8.536;2022-10-16T04:06:16;6.50;;;2.72;;
64052;SDS011;50299;49.524;8.536;2022-10-16T04:08:43;3.30;;;2.80;;
64052;SDS011;50299;49.524;8.536;2022-10-16T04:11:10;2.95;;;2.45;;
64052;SDS011;50299;49.524;8.536;2022-10-16T04:13:36;4.97;;;2.45;;
64052;SDS011;50299;49.524;8.536;2022-10-16T04:16:03;3.20;;;2.47;;
64052;SDS011;50299;49.524;8.536;2022-10-16T04:18:29;2.85;;;2.13;;
64052;SDS011;50299;49.524;8.536;2022-10-16T04:20:56;3.20;;;2.88;;
64052;SDS011;50299;49.524;8.536;2022-10-16T04:23:22;4.28;;;2.65;;
64052;SDS011;50299;49.524;8.536;2022-10-16T04:25:50;4.78;;;3.15;;
64052;SDS011;50299;49.524;8.536;2022-10-16T04:28:16;3.20;;;2.95;;
64052;SDS011;50299;49.524;8.536;2022-10-16T04:30:43;5.72;;;3.13;;
64052;SDS011;50299;49.524;8.536;2022-10-16T04:33:09;4.72;;;2.28;;
64052;SDS011;50299;49.524;8.536;2022-10-16T04:35:36;7.22;;;2.80;;
64052;SDS011;50299;49.524;8.536;2022-10-16T04:38:02;3.40;;;2.42;;
64052;SDS011;50299;49.524;8.536;2022-10-16T04:40:29;6.07;;;2.35;;
64052;SDS011;50299;49.524;8.536;2022-10-16T04:42:59;3.17;;;2.80;;
64052;SDS011;50299;49.524;8.536;2022-10-16T04:45:25;3.42;;;2.60;;
64052;SDS011;50299;49.524;8.536;2022-10-16T04:47:52;2.47;;;2.28;;
64052;SDS011;50299;49.524;8.536;2022-10-16T04:50:18;2.55;;;2.22;;
64052;SDS011;50299;49.524;8.536;2022-10-16T04:52:44;4.18;;;2.47;;
64052;SDS011;50299;49.524;8.536;2022-10-16T04:55:11;2.78;;;2.15;;
64052;SDS011;50299;49.524;8.536;2022-10-16T04:57:38;3.13;;;2.45;;
64052;SDS011;50299;49.524;8.536;2022-10-16T05:00:04;6.55;;;2.15;;
64052;SDS011;50299;49.524;8.536;2022-10-16T05:02:31;2.60;;;2.40;;
64052;SDS011;50299;49.524;8.536;2022-10-16T05:05:01;4.45;;;2.85;;
64052;SDS011;50299;49.524;8.536;2022-10-16T05:07:27;2.47;;;2.17;;
64052;SDS011;50299;49.524;8.536;2022-10-16T05:09:54;4.30;;;2.30;;
64052;SDS011;50299;49.524;8.536;2022-10-16T05:12:20;2.38;;;2.17;;
64052;SDS011;50299;49.524;8.536;2022-10-16T05:14:47;3.65;;;2.65;;
64052;SDS011;50299;49.524;8.536;2022-10-16T05:17:13;3.30;;;2.40;;
64052;SDS011;50299;49.524;8.536;2022-10-16T05:19:40;3.35;;;2.35;;
64052;SDS011;50299;49.524;8.536;2022-10-16T05:22:06;3.42;;;3.13;;
64052;SDS011;50299;49.524;8.536;2022-10-16T05:24:33;4.60;;;2.53;;
64052;SDS011;50299;49.524;8.536;2022-10-16T05:26:59;3.20;;;2.42;;
64052;SDS011;50299;49.524;8.536;2022-10-16T05:29:26;4.05;;;2.38;;
64052;SDS011;50299;49.524;8.536;2022-10-16T05:31:52;4.45;;;2.63;;
64052;SDS011;50299;49.524;8.536;2022-10-16T05:34:19;7.10;;;2.80;;
64052;SDS011;50299;49.524;8.536;2022-10-16T05:36:46;5.40;;;2.70;;
64052;SDS011;50299;49.524;8.536;2022-10-16T05:39:14;2.55;;;2.30;;
64052;SDS011;50299;49.524;8.536;2022-10-16T05:41:41;3.20;;;2.33;;
64052;SDS011;50299;49.524;8.536;2022-10-16T05:44:08;2.80;;;2.55;;
64052;SDS011;50299;49.524;8.536;2022-10-16T05:46:35;3.95;;;2.53;;
64052;SDS011;50299;49.524;8.536;2022-10-16T05:49:01;3.55;;;2.45;;
64052;SDS011;50299;49.524;8.536;2022-10-16T05:51:28;4.10;;;2.42;;
64052;SDS011;50299;49.524;8.536;2022-10-16T05:53:54;3.92;;;2.33;;
64052;SDS011;50299;49.524;8.536;2022-10-16T05:56:21;5.55;;;2.17;;
64052;SDS011;50299;49.524;8.536;2022-10-16T05:58:47;3.00;;;1.98;;
64052;SDS011;50299;49.524;8.536;2022-10-16T06:01:17;4.88;;;2.60;;
64052;SDS011;50299;49.524;8.536;2022-10-16T06:03:45;4.05;;;2.33;;
64052;SDS011;50299;49.524;8.536;2022-10-16T06:06:12;4.10;;;1.88;;
64052;SDS011;50299;49.524;8.536;2022-10-16T06:11:08;3.33;;;2.30;;
64052;SDS011;50299;49.524;8.536;2022-10-16T06:13:37;3.67;;;2.80;;
64052;SDS011;50299;49.524;8.536;2022-10-16T06:16:03;2.60;;;1.80;;
64052;SDS011;50299;49.524;8.536;2022-10-16T06:18:30;2.88;;;2.00;;
64052;SDS011;50299;49.524;8.536;2022-10-16T06:20:57;2.10;;;1.80;;
64052;SDS011;50299;49.524;8.536;2022-10-16T06:23:25;2.10;;;2.00;;
64052;SDS011;50299;49.524;8.536;2022-10-16T06:25:52;2.33;;;1.85;;
64052;SDS011;50299;49.524;8.536;2022-10-16T06:28:18;3.80;;;2.00;;
64052;SDS011;50299;49.524;8.536;2022-10-16T06:30:45;2.20;;;1.98;;
64052;SDS011;50299;49.524;8.536;2022-10-16T06:33:11;2.95;;;2.35;;
64052;SDS011;50299;49.524;8.536;2022-10-16T06:35:38;2.60;;;2.22;;
64052;SDS011;50299;49.524;8.536;2022-10-16T06:38:04;2.45;;;1.92;;
64052;SDS011;50299;49.524;8.536;2022-10-16T06:40:31;5.35;;;2.15;;
64052;SDS011;50299;49.524;8.536;2022-10-16T06:43:00;2.28;;;1.63;;
64052;SDS011;50299;49.524;8.536;2022-10-16T06:45:26;2.80;;;2.60;;
64052;SDS011;50299;49.524;8.536;2022-10-16T06:47:53;2.92;;;2.33;;
64052;SDS011;50299;49.524;8.536;2022-10-16T06:50:19;5.53;;;2.30;;
64052;SDS011;50299;49.524;8.536;2022-10-16T06:52:45;2.25;;;2.05;;
64052;SDS011;50299;49.524;8.536;2022-10-16T06:55:12;2.55;;;1.98;;
64052;SDS011;50299;49.524;8.536;2022-10-16T06:57:38;3.35;;;1.92;;
64052;SDS011;50299;49.524;8.536;2022-10-16T07:00:05;2.53;;;2.33;;
64052;SDS011;50299;49.524;8.536;2022-10-16T07:02:32;1.98;;;1.77;;
64052;SDS011;50299;49.524;8.536;2022-10-16T07:04:58;2.20;;;2.10;;
64052;SDS011;50299;49.524;8.536;2022-10-16T07:07:25;5.30;;;2.58;;
64052;SDS011;50299;49.524;8.536;2022-10-16T07:09:52;2.53;;;2.30;;
64052;SDS011;50299;49.524;8.536;2022-10-16T07:12:21;3.42;;;1.90;;
64052;SDS011;50299;49.524;8.536;2022-10-16T07:14:51;3.85;;;2.30;;
64052;SDS011;50299;49.524;8.536;2022-10-16T07:17:20;4.03;;;2.50;;
64052;SDS011;50299;49.524;8.536;2022-10-16T07:19:46;3.85;;;2.03;;
64052;SDS011;50299;49.524;8.536;2022-10-16T07:22:13;2.47;;;2.28;;
64052;SDS011;50299;49.524;8.536;2022-10-16T07:24:39;3.28;;;2.30;;
64052;SDS011;50299;49.524;8.536;2022-10-16T07:27:06;5.43;;;1.67;;
64052;SDS011;50299;49.524;8.536;2022-10-16T07:29:32;3.10;;;2.80;;
64052;SDS011;50299;49.524;8.536;2022-10-16T07:31:59;2.30;;;2.10;;
64052;SDS011;50299;49.524;8.536;2022-10-16T07:34:25;2.60;;;2.30;;
64052;SDS011;50299;49.524;8.536;2022-10-16T07:36:52;2.67;;;2.42;;
64052;SDS011;50299;49.524;8.536;2022-10-16T07:39:19;3.88;;;2.50;;
64052;SDS011;50299;49.524;8.536;2022-10-16T07:41:45;2.67;;;2.40;;
64052;SDS011;50299;49.524;8.536;2022-10-16T07:44:12;3.58;;;2.35;;
64052;SDS011;50299;49.524;8.536;2022-10-16T07:46:38;4.35;;;2.65;;
64052;SDS011;50299;49.524;8.536;2022-10-16T07:49:05;2.63;;;2.42;;
64052;SDS011;50299;49.524;8.536;2022-10-16T07:51:31;3.40;;;2.60;;
64052;SDS011;50299;49.524;8.536;2022-10-16T07:53:59;3.85;;;2.80;;
64052;SDS011;50299;49.524;8.536;2022-10-16T07:56:25;4.75;;;2.67;;
64052;SDS011;50299;49.524;8.536;2022-10-16T07:58:55;2.97;;;2.78;;
64052;SDS011;50299;49.524;8.536;2022-10-16T08:01:24;5.68;;;3.13;;
64052;SDS011;50299;49.524;8.536;2022-10-16T08:03:51;4.60;;;2.65;;
64052;SDS011;50299;49.524;8.536;2022-10-16T08:06:19;11.50;;;4.45;;
64052;SDS011;50299;49.524;8.536;2022-10-16T08:08:53;7.63;;;3.80;;
64052;SDS011;50299;49.524;8.536;2022-10-16T08:11:19;5.97;;;3.95;;
64052;SDS011;50299;49.524;8.536;2022-10-16T08:13:46;5.20;;;4.15;;
64052;SDS011;50299;49.524;8.536;2022-10-16T08:16:12;4.72;;;4.25;;
64052;SDS011;50299;49.524;8.536;2022-10-16T08:18:39;6.28;;;3.65;;
64052;SDS011;50299;49.524;8.536;2022-10-16T08:21:07;5.53;;;3.97;;
64052;SDS011;50299;49.524;8.536;2022-10-16T08:23:43;6.78;;;3.90;;
64052;SDS011;50299;49.524;8.536;2022-10-16T08:26:20;9.98;;;5.05;;
64052;SDS011;50299;49.524;8.536;2022-10-16T08:28:49;6.90;;;4.38;;
64052;SDS011;50299;49.524;8.536;2022-10-16T08:31:17;6.32;;;4.93;;
64052;SDS011;50299;49.524;8.536;2022-10-16T08:33:44;7.82;;;4.72;;
64052;SDS011;50299;49.524;8.536;2022-10-16T08:36:13;7.18;;;4.65;;
64052;SDS011;50299;49.524;8.536;2022-10-16T08:38:41;6.95;;;4.47;;
64052;SDS011;50299;49.524;8.536;2022-10-16T08:41:16;5.78;;;3.60;;
64052;SDS011;50299;49.524;8.536;2022-10-16T08:49:58;4.55;;;3.38;;
64052;SDS011;50299;49.524;8.536;2022-10-16T08:52:31;3.67;;;3.33;;
64052;SDS011;50299;49.524;8.536;2022-10-16T08:55:02;46.30;;;6.47;;
64052;SDS011;50299;49.524;8.536;2022-10-16T08:57:30;10.55;;;5.63;;
64052;SDS011;50299;49.524;8.536;2022-10-16T09:00:05;9.70;;;4.13;;
64052;SDS011;50299;49.524;8.536;2022-10-16T09:02:49;9.07;;;4.75;;
64052;SDS011;50299;49.524;8.536;2022-10-16T09:05:36;3.35;;;2.67;;
64052;SDS011;50299;49.524;8.536;2022-10-16T09:08:22;5.13;;;3.13;;
64052;SDS011;50299;49.524;8.536;2022-10-16T09:11:05;4.22;;;3.20;;
64052;SDS011;50299;49.524;8.536;2022-10-16T09:13:54;5.95;;;4.03;;
64052;SDS011;50299;49.524;8.536;2022-10-16T09:16:33;6.90;;;4.82;;
64052;SDS011;50299;49.524;8.536;2022-10-16T09:19:09;6.13;;;4.63;;
64052;SDS011;50299;49.524;8.536;2022-10-16T09:21:48;7.38;;;4.85;;
64052;SDS011;50299;49.524;8.536;2022-10-16T09:24:16;6.00;;;4.80;;
64052;SDS011;50299;49.524;8.536;2022-10-16T09:26:45;5.03;;;4.30;;
64052;SDS011;50299;49.524;8.536;2022-10-16T09:29:12;11.30;;;4.32;;
64052;SDS011;50299;49.524;8.536;2022-10-16T09:31:40;6.07;;;5.18;;
64052;SDS011;50299;49.524;8.536;2022-10-16T09:34:13;7.82;;;5.00;;
64052;SDS011;50299;49.524;8.536;2022-10-16T09:36:44;7.72;;;5.22;;
64052;SDS011;50299;49.524;8.536;2022-10-16T09:39:12;9.90;;;5.90;;
64052;SDS011;50299;49.524;8.536;2022-10-16T09:41:39;6.43;;;5.03;;
64052;SDS011;50299;49.524;8.536;2022-10-16T09:44:19;8.10;;;5.72;;
64052;SDS011;50299;49.524;8.536;2022-10-16T09:47:00;10.50;;;6.40;;
64052;SDS011;50299;49.524;8.536;2022-10-16T09:49:31;8.38;;;5.82;;
64052;SDS011;50299;49.524;8.536;2022-10-16T09:52:09;7.72;;;6.00;;
64052;SDS011;50299;49.524;8.536;2022-10-16T09:54:48;6.93;;;5.22;;
64052;SDS011;50299;49.524;8.536;2022-10-16T09:57:19;9.38;;;5.80;;
64052;SDS011;50299;49.524;8.536;2022-10-16T09:59:50;7.90;;;5.22;;
64052;SDS011;50299;49.524;8.536;2022-10-16T10:02:19;7.45;;;5.72;;
64052;SDS011;50299;49.524;8.536;2022-10-16T10:04:54;6.70;;;5.57;;
64052;SDS011;50299;49.524;8.536;2022-10-16T10:07:24;9.85;;;5.70;;
64052;SDS011;50299;49.524;8.536;2022-10-16T10:09:54;7.20;;;6.05;;
64052;SDS011;50299;49.524;8.536;2022-10-16T10:12:29;8.15;;;6.55;;
64052;SDS011;50299;49.524;8.536;2022-10-16T10:15:03;8.32;;;7.53;;
64052;SDS011;50299;49.524;8.536;2022-10-16T10:17:33;7.82;;;7.03;;
64052;SDS011;50299;49.524;8.536;2022-10-16T10:20:22;9.73;;;7.57;;
64052;SDS011;50299;49.524;8.536;2022-10-16T10:22:51;7.68;;;5.47;;
64052;SDS011;50299;49.524;8.536;2022-10-16T10:39:06;7.18;;;5.55;;
64052;SDS011;50299;49.524;8.536;2022-10-16T10:41:44;8.25;;;4.30;;
64052;SDS011;50299;49.524;8.536;2022-10-16T10:44:33;4.93;;;4.20;;
64052;SDS011;50299;49.524;8.536;2022-10-16T10:47:20;8.55;;;4.68;;
64052;SDS011;50299;49.524;8.536;2022-10-16T10:50:22;3.92;;;3.63;;
64052;SDS011;50299;49.524;8.536;2022-10-16T10:55:45;5.03;;;3.85;;
64052;SDS011;50299;49.524;8.536;2022-10-16T10:58:18;5.35;;;4.25;;
64052;SDS011;50299;49.524;8.536;2022-10-16T11:01:18;4.80;;;4.20;;
64052;SDS011;50299;49.524;8.536;2022-10-16T11:06:34;6.93;;;2.90;;
64052;SDS011;50299;49.524;8.536;2022-10-16T11:09:17;3.42;;;2.38;;
64052;SDS011;50299;49.524;8.536;2022-10-16T11:12:11;2.88;;;2.58;;
64052;SDS011;50299;49.524;8.536;2022-10-16T11:14:42;3.13;;;2.17;;
64052;SDS011;50299;49.524;8.536;2022-10-16T11:17:23;2.97;;;2.63;;
64052;SDS011;50299;49.524;8.536;2022-10-16T11:19:58;3.28;;;2.50;;
64052;SDS011;50299;49.524;8.536;2022-10-16T11:22:38;6.03;;;2.30;;
64052;SDS011;50299;49.524;8.536;2022-10-16T11:25:22;2.80;;;2.60;;
64052;SDS011;50299;49.524;8.536;2022-10-16T11:27:54;2.33;;;2.13;;
64052;SDS011;50299;49.524;8.536;2022-10-16T11:30:29;3.25;;;2.28;;
64052;SDS011;50299;49.524;8.536;2022-10-16T11:33:04;4.15;;;2.13;;
64052;SDS011;50299;49.524;8.536;2022-10-16T11:41:24;2.90;;;2.53;;
64052;SDS011;50299;49.524;8.536;2022-10-16T11:47:15;2.83;;;2.40;;
64052;SDS011;50299;49.524;8.536;2022-10-16T11:50:29;5.18;;;2.40;;
64052;SDS011;50299;49.524;8.536;2022-10-16T11:53:16;4.80;;;2.50;;
64052;SDS011;50299;49.524;8.536;2022-10-16T11:55:55;2.67;;;2.47;;
64052;SDS011;50299;49.524;8.536;2022-10-16T11:58:27;5.20;;;2.38;;
64052;SDS011;50299;49.524;8.536;2022-10-16T12:01:26;2.53;;;2.33;;
64052;SDS011;50299;49.524;8.536;2022-10-16T12:06:43;3.08;;;2.85;;
64052;SDS011;50299;49.524;8.536;2022-10-16T12:09:34;2.97;;;2.70;;
64052;SDS011;50299;49.524;8.536;2022-10-16T12:12:03;4.82;;;2.85;;
64052;SDS011;50299;49.524;8.536;2022-10-16T12:14:35;4.05;;;2.50;;
64052;SDS011;50299;49.524;8.536;2022-10-16T12:17:25;5.75;;;2.80;;
64052;SDS011;50299;49.524;8.536;2022-10-16T12:22:41;6.35;;;2.55;;
64052;SDS011;50299;49.524;8.536;2022-10-16T12:25:57;3.58;;;2.67;;
64052;SDS011;50299;49.524;8.536;2022-10-16T12:30:41;2.67;;;2.38;;
64052;SDS011;50299;49.524;8.536;2022-10-16T12:33:24;6.45;;;2.78;;
64052;SDS011;50299;49.524;8.536;2022-10-16T12:35:56;8.20;;;3.15;;
64052;SDS011;50299;49.524;8.536;2022-10-16T12:38:26;2.83;;;2.63;;
64052;SDS011;50299;49.524;8.536;2022-10-16T12:41:00;3.55;;;2.50;;
64052;SDS011;50299;49.524;8.536;2022-10-16T12:43:37;3.95;;;2.78;;
64052;SDS011;50299;49.524;8.536;2022-10-16T12:48:37;3.20;;;2.90;;
64052;SDS011;50299;49.524;8.536;2022-10-16T13:05:35;2.45;;;2.17;;
64052;SDS011;50299;49.524;8.536;2022-10-16T13:10:51;3.08;;;2.88;;
64052;SDS011;50299;49.524;8.536;2022-10-16T13:16:30;4.88;;;2.72;;
64052;SDS011;50299;49.524;8.536;2022-10-16T13:19:22;5.80;;;3.90;;
64052;SDS011;50299;49.524;8.536;2022-10-16T13:22:10;3.97;;;2.47;;
64052;SDS011;50299;49.524;8.536;2022-10-16T13:24:58;2.90;;;2.55;;
64052;SDS011;50299;49.524;8.536;2022-10-16T13:27:52;3.83;;;2.50;;
64052;SDS011;50299;49.524;8.536;2022-10-16T13:30:25;5.10;;;2.55;;
64052;SDS011;50299;49.524;8.536;2022-10-16T13:35:51;3.97;;;2.47;;
64052;SDS011;50299;49.524;8.536;2022-10-16T13:38:20;3.33;;;2.28;;
64052;SDS011;50299;49.524;8.536;2022-10-16T13:43:43;3.83;;;3.50;;
64052;SDS011;50299;49.524;8.536;2022-10-16T13:46:14;4.10;;;3.63;;
64052;SDS011;50299;49.524;8.536;2022-10-16T13:49:04;2.97;;;2.67;;
64052;SDS011;50299;49.524;8.536;2022-10-16T13:51:37;3.45;;;2.35;;
64052;SDS011;50299;49.524;8.536;2022-10-16T13:54:04;3.28;;;2.83;;
64052;SDS011;50299;49.524;8.536;2022-10-16T13:56:32;6.85;;;4.22;;
64052;SDS011;50299;49.524;8.536;2022-10-16T13:59:03;4.22;;;2.60;;
64052;SDS011;50299;49.524;8.536;2022-10-16T14:01:33;7.32;;;2.25;;
64052;SDS011;50299;49.524;8.536;2022-10-16T14:04:06;4.53;;;2.17;;
64052;SDS011;50299;49.524;8.536;2022-10-16T14:06:36;4.70;;;2.53;;
64052;SDS011;50299;49.524;8.536;2022-10-16T14:09:06;4.78;;;2.20;;
64052;SDS011;50299;49.524;8.536;2022-10-16T14:11:45;2.95;;;2.60;;
64052;SDS011;50299;49.524;8.536;2022-10-16T14:14:15;3.28;;;2.90;;
64052;SDS011;50299;49.524;8.536;2022-10-16T14:16:42;3.35;;;2.10;;
64052;SDS011;50299;49.524;8.536;2022-10-16T14:19:14;4.03;;;2.47;;
64052;SDS011;50299;49.524;8.536;2022-10-16T14:21:45;4.05;;;2.22;;
64052;SDS011;50299;49.524;8.536;2022-10-16T14:24:12;4.05;;;2.55;;
64052;SDS011;50299;49.524;8.536;2022-10-16T14:26:47;2.55;;;2.35;;
64052;SDS011;50299;49.524;8.536;2022-10-16T14:34:23;4.40;;;2.70;;
64052;SDS011;50299;49.524;8.536;2022-10-16T14:36:54;5.53;;;3.30;;
64052;SDS011;50299;49.524;8.536;2022-10-16T14:39:21;3.00;;;2.55;;
64052;SDS011;50299;49.524;8.536;2022-10-16T14:41:50;2.80;;;2.40;;
64052;SDS011;50299;49.524;8.536;2022-10-16T14:44:18;3.70;;;3.00;;
64052;SDS011;50299;49.524;8.536;2022-10-16T14:46:47;2.90;;;2.58;;
64052;SDS011;50299;49.524;8.536;2022-10-16T14:49:17;3.35;;;2.78;;
64052;SDS011;50299;49.524;8.536;2022-10-16T14:51:46;78.05;;;5.72;;
64052;SDS011;50299;49.524;8.536;2022-10-16T14:54:14;66.65;;;5.20;;
64052;SDS011;50299;49.524;8.536;2022-10-16T14:56:47;3.00;;;2.60;;
64052;SDS011;50299;49.524;8.536;2022-10-16T14:59:17;2.92;;;2.40;;
64052;SDS011;50299;49.524;8.536;2022-10-16T15:01:57;2.47;;;2.28;;
64052;SDS011;50299;49.524;8.536;2022-10-16T15:04:23;3.38;;;2.60;;
64052;SDS011;50299;49.524;8.536;2022-10-16T15:06:50;9.27;;;3.03;;
64052;SDS011;50299;49.524;8.536;2022-10-16T15:09:16;12.13;;;3.00;;
64052;SDS011;50299;49.524;8.536;2022-10-16T15:11:43;5.35;;;2.40;;
64052;SDS011;50299;49.524;8.536;2022-10-16T15:14:11;3.58;;;2.80;;
64052;SDS011;50299;49.524;8.536;2022-10-16T15:16:43;3.78;;;2.65;;
64052;SDS011;50299;49.524;8.536;2022-10-16T15:19:10;3.17;;;2.70;;
64052;SDS011;50299;49.524;8.536;2022-10-16T15:21:36;4.90;;;2.42;;
64052;SDS011;50299;49.524;8.536;2022-10-16T15:24:05;3.78;;;2.55;;
64052;SDS011;50299;49.524;8.536;2022-10-16T15:26:35;4.25;;;2.42;;
64052;SDS011;50299;49.524;8.536;2022-10-16T15:29:01;3.53;;;2.78;;
64052;SDS011;50299;49.524;8.536;2022-10-16T15:31:28;3.47;;;2.30;;
64052;SDS011;50299;49.524;8.536;2022-10-16T15:33:54;3.60;;;2.35;;
64052;SDS011;50299;49.524;8.536;2022-10-16T15:36:25;3.20;;;2.63;;
64052;SDS011;50299;49.524;8.536;2022-10-16T15:38:52;3.08;;;2.60;;
64052;SDS011;50299;49.524;8.536;2022-10-16T15:41:19;3.30;;;2.63;;
64052;SDS011;50299;49.524;8.536;2022-10-16T15:43:50;2.70;;;2.50;;
64052;SDS011;50299;49.524;8.536;2022-10-16T15:46:20;4.63;;;2.40;;
64052;SDS011;50299;49.524;8.536;2022-10-16T15:48:48;4.28;;;2.50;;
64052;SDS011;50299;49.524;8.536;2022-10-16T15:51:15;7.63;;;2.70;;
64052;SDS011;50299;49.524;8.536;2022-10-16T15:53:46;3.90;;;2.67;;
64052;SDS011;50299;49.524;8.536;2022-10-16T15:56:13;3.97;;;2.67;;
64052;SDS011;50299;49.524;8.536;2022-10-16T15:58:40;3.53;;;2.67;;
64052;SDS011;50299;49.524;8.536;2022-10-16T16:01:06;3.63;;;2.70;;
64052;SDS011;50299;49.524;8.536;2022-10-16T16:06:04;6.75;;;3.00;;
64052;SDS011;50299;49.524;8.536;2022-10-16T16:08:33;4.72;;;3.08;;
64052;SDS011;50299;49.524;8.536;2022-10-16T16:11:07;4.40;;;2.72;;
64052;SDS011;50299;49.524;8.536;2022-10-16T16:13:36;3.08;;;2.88;;
64052;SDS011;50299;49.524;8.536;2022-10-16T16:16:08;5.70;;;3.20;;
64052;SDS011;50299;49.524;8.536;2022-10-16T16:18:36;6.82;;;2.85;;
64052;SDS011;50299;49.524;8.536;2022-10-16T16:21:03;4.05;;;3.15;;
64052;SDS011;50299;49.524;8.536;2022-10-16T16:23:30;4.07;;;3.55;;
64052;SDS011;50299;49.524;8.536;2022-10-16T16:26:14;5.63;;;3.60;;
64052;SDS011;50299;49.524;8.536;2022-10-16T16:28:52;5.22;;;3.70;;
64052;SDS011;50299;49.524;8.536;2022-10-16T16:31:26;9.05;;;3.15;;
64052;SDS011;50299;49.524;8.536;2022-10-16T16:33:53;3.50;;;3.20;;
64052;SDS011;50299;49.524;8.536;2022-10-16T16:36:20;5.00;;;2.90;;
64052;SDS011;50299;49.524;8.536;2022-10-16T16:38:46;3.05;;;2.75;;
64052;SDS011;50299;49.524;8.536;2022-10-16T16:41:17;3.70;;;3.35;;
64052;SDS011;50299;49.524;8.536;2022-10-16T16:43:45;4.55;;;3.17;;
64052;SDS011;50299;49.524;8.536;2022-10-16T16:46:13;5.97;;;3.30;;
64052;SDS011;50299;49.524;8.536;2022-10-16T16:48:43;6.38;;;2.47;;